createdAt,value
2023-03-21T00:02:24.479Z,100206.84
2023-03-21T00:05:27.025Z,100204.25
2023-03-21T00:08:29.696Z,100204.72
2023-03-21T00:11:32.253Z,100196.91
2023-03-21T00:14:34.986Z,100196.87
2023-03-21T00:17:39.944Z,100191.62
2023-03-21T00:20:42.451Z,100192.28
2023-03-21T00:23:46.701Z,100187.06
2023-03-21T00:26:50.509Z,100182.28
2023-03-21T00:29:52.870Z,100179.34
2023-03-21T00:32:56.793Z,100171.16
2023-03-21T00:36:05.256Z,100172.37
2023-03-21T00:39:08.210Z,100170.66
2023-03-21T00:42:10.862Z,100166.19
2023-03-21T00:45:13.579Z,100165.13
2023-03-21T00:48:16.094Z,100158.34
2023-03-21T00:51:26.634Z,100158.34
2023-03-21T00:54:29.298Z,100158.00
2023-03-21T00:57:38.972Z,100150.56
2023-03-21T01:00:42.650Z,100161.06
2023-03-21T01:03:51.252Z,100154.22
2023-03-21T01:06:54.403Z,100152.94
2023-03-21T01:09:56.860Z,100156.03
2023-03-21T01:13:00.071Z,100152.84
2023-03-21T01:16:03.673Z,100152.37
2023-03-21T01:19:09.461Z,100154.16
2023-03-21T01:22:17.166Z,100155.84
2023-03-21T01:25:22.608Z,100151.22
2023-03-21T01:28:29.106Z,100149.75
2023-03-21T01:31:32.416Z,100150.50
2023-03-21T01:34:34.962Z,100158.19
2023-03-21T01:37:37.464Z,100151.81
2023-03-21T01:40:40.593Z,100152.72
2023-03-21T01:43:43.204Z,100155.00
2023-03-21T01:50:12.946Z,100156.28
2023-03-21T01:53:16.037Z,100159.50
2023-03-21T01:56:21.321Z,100157.38
2023-03-21T01:59:55.034Z,100159.75
2023-03-21T02:03:09.746Z,100162.69
2023-03-21T02:06:17.125Z,100155.97
2023-03-21T02:09:22.376Z,100166.63
2023-03-21T02:12:26.488Z,100161.78
2023-03-21T02:15:28.814Z,100157.00
2023-03-21T02:18:31.319Z,100156.75
2023-03-21T02:21:33.905Z,100157.00
2023-03-21T02:25:01.220Z,100157.00
2023-03-21T02:28:09.746Z,100151.19
2023-03-21T02:31:21.124Z,100151.28
2023-03-21T02:34:23.747Z,100146.69
2023-03-21T02:37:36.730Z,100155.69
2023-03-21T02:41:00.416Z,100157.47
2023-03-21T02:44:20.314Z,100159.84
2023-03-21T02:47:39.919Z,100159.97
2023-03-21T02:50:53.301Z,100163.41
2023-03-21T02:54:23.636Z,100162.94
2023-03-21T02:57:23.934Z,100157.00
2023-03-21T03:00:30.045Z,100159.84
2023-03-21T03:03:34.793Z,100160.81
2023-03-21T03:06:56.472Z,100157.72
2023-03-21T03:10:01.618Z,100153.81
2023-03-21T03:13:23.550Z,100160.72
2023-03-21T03:16:37.009Z,100163.66
2023-03-21T03:19:50.633Z,100159.06
2023-03-21T03:23:22.505Z,100163.81
2023-03-21T03:26:35.112Z,100159.41
2023-03-21T03:29:39.640Z,100151.56
2023-03-21T03:32:48.350Z,100155.00
2023-03-21T03:36:04.362Z,100163.91
2023-03-21T03:39:12.476Z,100154.66
2023-03-21T03:42:33.757Z,100153.09
2023-03-21T03:45:38.804Z,100152.37
2023-03-21T03:48:51.179Z,100153.22
2023-03-21T03:52:08.016Z,100154.75
2023-03-21T03:55:12.846Z,100150.97
2023-03-21T03:58:24.020Z,100153.81
2023-03-21T04:01:29.785Z,100159.63
2023-03-21T04:04:32.681Z,100161.44
2023-03-21T04:07:35.099Z,100160.81
2023-03-21T04:10:38.239Z,100158.91
2023-03-21T04:13:41.822Z,100160.72
2023-03-21T04:16:44.267Z,100163.56
2023-03-21T04:19:46.963Z,100165.69
2023-03-21T04:22:49.352Z,100164.62
2023-03-21T04:25:56.572Z,100168.75
2023-03-21T04:29:03.154Z,100165.87
2023-03-21T04:32:20.010Z,100164.72
2023-03-21T04:35:24.219Z,100165.87
2023-03-21T04:38:32.820Z,100161.44
2023-03-21T04:41:37.420Z,100154.91
2023-03-21T04:44:39.627Z,100162.00
2023-03-21T04:47:43.382Z,100161.91
2023-03-21T04:50:46.906Z,100150.72
2023-03-21T04:53:49.765Z,100148.69
2023-03-21T04:56:53.230Z,100147.16
2023-03-21T04:59:55.790Z,100144.91
2023-03-21T05:02:58.786Z,100151.91
2023-03-21T05:06:02.972Z,100156.63
2023-03-21T05:09:08.058Z,100163.53
2023-03-21T05:12:10.416Z,100164.94
2023-03-21T05:15:13.103Z,100164.84
2023-03-21T05:18:15.531Z,100177.75
2023-03-21T05:21:19.853Z,100170.78
2023-03-21T05:24:22.776Z,100171.16
2023-03-21T05:27:37.432Z,100174.47
2023-03-21T05:30:39.897Z,100175.50
2023-03-21T05:33:42.879Z,100174.69
2023-03-21T05:36:45.372Z,100182.28
2023-03-21T05:39:48.125Z,100185.87
2023-03-21T05:42:50.675Z,100192.53
2023-03-21T05:45:53.410Z,100195.03
2023-03-21T05:48:55.734Z,100205.25
2023-03-21T05:51:58.370Z,100203.53
2023-03-21T05:55:00.884Z,100199.34
2023-03-21T05:58:03.533Z,100201.72
2023-03-21T06:01:06.658Z,100202.41
2023-03-21T06:04:09.077Z,100203.78
2023-03-21T06:07:11.972Z,100210.19
2023-03-21T06:10:14.591Z,100208.66
2023-03-21T06:13:17.267Z,100211.75
2023-03-21T06:16:19.602Z,100204.56
2023-03-21T06:19:22.606Z,100211.53
2023-03-21T06:22:26.590Z,100210.72
2023-03-21T06:25:29.126Z,100214.22
2023-03-21T06:28:31.856Z,100214.72
2023-03-21T06:31:34.407Z,100211.41
2023-03-21T06:34:39.449Z,100222.28
2023-03-21T06:37:43.478Z,100220.75
2023-03-21T06:40:46.597Z,100224.34
2023-03-21T06:43:48.936Z,100216.44
2023-03-21T06:46:51.859Z,100222.44
2023-03-21T06:49:54.316Z,100221.25
2023-03-21T06:52:57.859Z,100216.94
2023-03-21T06:56:00.476Z,100217.78
2023-03-21T06:59:03.360Z,100230.34
2023-03-21T07:02:06.195Z,100223.75
2023-03-21T07:05:10.432Z,100236.63
2023-03-21T07:08:14.490Z,100243.72
2023-03-21T07:11:17.109Z,100252.91
2023-03-21T07:14:19.881Z,100240.47
2023-03-21T07:17:22.946Z,100241.38
2023-03-21T07:20:27.832Z,100249.06
2023-03-21T07:23:39.264Z,100252.72
2023-03-21T07:26:52.551Z,100241.72
2023-03-21T07:29:54.854Z,100240.56
2023-03-21T07:32:59.817Z,100238.50
2023-03-21T07:39:23.280Z,100241.44
2023-03-21T07:42:25.726Z,100238.59
2023-03-21T07:45:28.370Z,100232.59
2023-03-21T07:48:39.756Z,100236.34
2023-03-21T07:51:42.516Z,100227.84
2023-03-21T07:54:44.860Z,100226.56
2023-03-21T07:57:51.799Z,100224.69
2023-03-21T08:00:56.716Z,100229.72
2023-03-21T08:04:05.567Z,100221.97
2023-03-21T08:07:07.921Z,100221.06
2023-03-21T08:10:12.022Z,100223.84
2023-03-21T08:13:18.836Z,100223.66
2023-03-21T08:16:22.012Z,100219.38
2023-03-21T08:19:24.718Z,100222.84
2023-03-21T08:22:27.344Z,100225.59
2023-03-21T08:25:29.753Z,100220.63
2023-03-21T08:28:32.220Z,100231.53
2023-03-21T08:31:34.695Z,100226.75
2023-03-21T08:34:39.414Z,100228.97
2023-03-21T08:37:42.353Z,100229.81
2023-03-21T08:40:45.394Z,100227.06
2023-03-21T08:43:48.853Z,100237.94
2023-03-21T08:46:56.461Z,100239.56
2023-03-21T08:49:59.597Z,100232.66
2023-03-21T08:53:03.438Z,100229.25
2023-03-21T08:59:37.108Z,100237.81
2023-03-21T09:02:40.141Z,100234.63
2023-03-21T09:05:45.819Z,100237.69
2023-03-21T09:08:49.144Z,100241.38
2023-03-21T09:11:52.640Z,100239.72
2023-03-21T09:14:55.173Z,100241.38
2023-03-21T09:17:58.959Z,100234.00
2023-03-21T09:21:01.965Z,100236.38
2023-03-21T09:24:06.831Z,100238.72
2023-03-21T09:27:09.601Z,100235.62
2023-03-21T09:30:13.454Z,100241.88
2023-03-21T09:33:21.504Z,100236.97
2023-03-21T09:36:26.644Z,100249.41
2023-03-21T09:39:29.709Z,100244.09
2023-03-21T09:42:48.649Z,100248.47
2023-03-21T09:46:11.295Z,100243.69
2023-03-21T09:49:31.603Z,100243.19
2023-03-21T09:52:54.418Z,100235.41
2023-03-21T09:55:57.335Z,100234.88
2023-03-21T09:59:00.975Z,100228.09
2023-03-21T10:02:04.846Z,100226.66
2023-03-21T10:05:13.163Z,100220.59
2023-03-21T10:08:36.748Z,100235.81
2023-03-21T10:11:42.561Z,100231.16
2023-03-21T10:14:47.336Z,100228.97
2023-03-21T10:17:53.771Z,100220.37
2023-03-21T10:20:56.389Z,100220.94
2023-03-21T10:24:00.177Z,100222.72
2023-03-21T10:27:03.039Z,100218.09
2023-03-21T10:30:07.739Z,100219.34
2023-03-21T10:33:13.808Z,100211.94
2023-03-21T10:36:20.816Z,100209.69
2023-03-21T10:39:23.640Z,100213.00
2023-03-21T10:42:33.294Z,100204.41
2023-03-21T10:45:36.730Z,100212.16
2023-03-21T10:48:50.671Z,100208.56
2023-03-21T10:51:59.197Z,100203.84
2023-03-21T10:55:20.567Z,100205.28
2023-03-21T10:58:29.236Z,100204.31
2023-03-21T11:01:36.789Z,100204.22
2023-03-21T11:04:39.176Z,100196.22
2023-03-21T11:07:42.468Z,100196.81
2023-03-21T11:10:51.853Z,100183.44
2023-03-21T11:13:59.374Z,100182.91
2023-03-21T11:17:02.332Z,100175.41
2023-03-21T11:20:06.703Z,100176.47
2023-03-21T11:23:11.383Z,100169.50
2023-03-21T11:26:19.886Z,100163.91
2023-03-21T11:29:43.218Z,100161.94
2023-03-21T11:32:46.044Z,100164.28
2023-03-21T11:36:02.256Z,100168.53
2023-03-21T11:39:23.154Z,100161.69
2023-03-21T11:42:27.380Z,100153.69
2023-03-21T11:45:29.886Z,100146.38
2023-03-21T11:48:41.117Z,100141.16
2023-03-21T11:51:43.487Z,100143.22
2023-03-21T11:54:46.203Z,100141.06
2023-03-21T11:58:05.287Z,100144.56
2023-03-21T12:01:20.712Z,100140.44
2023-03-21T12:04:32.390Z,100128.50
2023-03-21T12:07:53.640Z,100129.94
2023-03-21T12:11:04.915Z,100118.59
2023-03-21T12:14:16.628Z,100122.22
2023-03-21T12:17:19.193Z,100115.09
2023-03-21T12:20:24.670Z,100109.69
2023-03-21T12:23:33.010Z,100106.50
2023-03-21T12:26:54.345Z,100107.75
2023-03-21T12:30:15.668Z,100100.75
2023-03-21T12:33:17.999Z,100106.16
2023-03-21T12:36:39.245Z,100105.16
2023-03-21T12:39:41.853Z,100110.22
2023-03-21T12:42:59.655Z,100106.66
2023-03-21T12:46:23.649Z,100102.44
2023-03-21T12:49:29.099Z,100099.81
2023-03-21T12:52:35.592Z,100101.19
2023-03-21T12:55:39.961Z,100102.63
2023-03-21T12:58:46.397Z,100099.69
2023-03-21T13:01:51.315Z,100090.59
2023-03-21T13:05:01.541Z,100090.75
2023-03-21T13:08:07.775Z,100088.66
2023-03-21T13:11:13.974Z,100074.53
2023-03-21T13:14:21.160Z,100066.16
2023-03-21T13:17:27.980Z,100054.06
2023-03-21T13:20:45.537Z,100062.94
2023-03-21T13:24:04.848Z,100057.03
2023-03-21T13:27:21.820Z,100054.03
2023-03-21T13:30:26.791Z,100059.75
2023-03-21T13:33:30.618Z,100061.09
2023-03-21T13:36:38.252Z,100058.94
2023-03-21T13:39:43.939Z,100053.97
2023-03-21T13:42:51.333Z,100049.44
2023-03-21T13:45:54.359Z,100051.72
2023-03-21T13:49:00.145Z,100052.00
2023-03-21T13:52:22.822Z,100046.03
2023-03-21T13:55:27.911Z,100049.12
2023-03-21T13:58:35.120Z,100048.72
2023-03-21T14:01:44.441Z,100052.03
2023-03-21T14:05:04.118Z,100037.47
2023-03-21T14:08:15.443Z,100038.94
2023-03-21T14:11:22.353Z,100036.78
2023-03-21T14:14:27.469Z,100024.28
2023-03-21T14:17:31.585Z,100024.31
2023-03-21T14:20:38.594Z,100025.81
2023-03-21T14:23:41.282Z,100022.31
2023-03-21T14:26:48.342Z,100007.13
2023-03-21T14:29:53.618Z,100011.13
2023-03-21T14:32:59.984Z,100004.84
2023-03-21T14:36:14.395Z,99996.25
2023-03-21T14:39:26.525Z,99999.22
2023-03-21T14:42:34.534Z,100001.19
2023-03-21T14:45:37.421Z,99997.22
2023-03-21T14:48:39.887Z,99995.41
2023-03-21T14:51:43.199Z,99995.41
2023-03-21T14:54:47.615Z,99994.31
2023-03-21T14:57:50.310Z,100000.75
2023-03-21T15:00:53.570Z,99999.25
2023-03-21T15:03:56.270Z,100010.13
2023-03-21T15:07:05.345Z,100006.16
2023-03-21T15:10:09.817Z,100003.66
2023-03-21T15:13:16.908Z,99999.53
2023-03-21T15:16:19.932Z,99998.56
2023-03-21T15:19:25.357Z,99994.66
2023-03-21T15:22:27.912Z,99990.22
2023-03-21T15:25:33.392Z,99992.22
2023-03-21T15:28:36.482Z,99989.88
2023-03-21T15:31:40.516Z,99978.78
2023-03-21T15:34:43.687Z,99990.91
2023-03-21T15:37:53.022Z,99987.59
2023-03-21T15:41:34.356Z,99977.53
2023-03-21T15:44:36.844Z,99994.25
2023-03-21T15:47:41.308Z,99996.16
2023-03-21T15:50:48.943Z,99990.81
2023-03-21T15:53:54.432Z,99994.37
2023-03-21T15:56:58.268Z,99995.19
2023-03-21T16:00:08.747Z,99982.28
2023-03-21T16:03:19.432Z,99987.63
2023-03-21T16:06:24.795Z,99985.50
2023-03-21T16:09:27.255Z,99982.31
2023-03-21T16:12:29.820Z,99985.87
2023-03-21T16:15:32.564Z,99987.09
2023-03-21T16:18:35.231Z,99988.97
2023-03-21T16:21:40.349Z,99989.56
2023-03-21T16:24:42.907Z,99991.31
2023-03-21T16:27:46.130Z,99993.00
2023-03-21T16:30:48.309Z,99988.97
2023-03-21T16:33:51.730Z,99997.72
2023-03-21T16:36:54.029Z,99989.75
2023-03-21T16:39:56.680Z,99985.06
2023-03-21T16:42:59.266Z,99996.31
2023-03-21T16:46:01.796Z,99995.94
2023-03-21T16:49:04.638Z,100001.41
2023-03-21T16:52:07.203Z,100001.59
2023-03-21T16:55:09.905Z,100004.09
2023-03-21T16:58:14.940Z,100008.25
2023-03-21T17:01:19.710Z,100010.75
2023-03-21T17:04:22.870Z,100010.25
2023-03-21T17:07:25.767Z,100017.31
2023-03-21T17:10:29.038Z,100018.28
2023-03-21T17:13:31.231Z,100024.66
2023-03-21T17:16:33.840Z,100019.41
2023-03-21T17:19:36.447Z,100020.25
2023-03-21T17:22:38.642Z,100023.53
2023-03-21T17:25:41.333Z,100022.56
2023-03-21T17:28:43.670Z,100021.31
2023-03-21T17:31:48.743Z,100028.75
2023-03-21T17:34:53.650Z,100021.03
2023-03-21T17:37:59.029Z,100025.06
2023-03-21T17:41:01.734Z,100026.69
2023-03-21T17:44:04.312Z,100020.75
2023-03-21T17:47:06.761Z,100025.44
2023-03-21T17:50:28.305Z,100020.59
2023-03-21T17:53:30.635Z,100024.19
2023-03-21T17:56:34.651Z,100024.59
2023-03-21T17:59:37.341Z,100027.09
2023-03-21T18:02:40.550Z,100031.91
2023-03-21T18:05:43.060Z,100038.38
2023-03-21T18:08:46.248Z,100043.50
2023-03-21T18:11:48.712Z,100047.34
2023-03-21T18:14:51.573Z,100044.63
2023-03-21T18:17:53.970Z,100047.91
2023-03-21T18:20:58.409Z,100045.03
2023-03-21T18:24:01.314Z,100047.94
2023-03-21T18:27:04.195Z,100038.66
2023-03-21T18:30:32.758Z,100054.69
2023-03-21T18:33:30.339Z,100053.56
2023-03-21T18:36:32.737Z,100052.47
2023-03-21T18:39:35.063Z,100051.34
2023-03-21T18:42:37.429Z,100055.38
2023-03-21T18:45:39.862Z,100059.50
2023-03-21T18:48:42.949Z,100055.88
2023-03-21T18:51:47.276Z,100057.81
2023-03-21T18:54:50.374Z,100059.72
2023-03-21T18:57:54.180Z,100059.72
2023-03-21T19:00:59.829Z,100064.69
2023-03-21T19:04:21.460Z,100063.31
2023-03-21T19:07:25.284Z,100060.53
2023-03-21T19:10:28.693Z,100061.47
2023-03-21T19:13:31.057Z,100066.56
2023-03-21T19:16:49.728Z,100068.91
2023-03-21T19:19:55.979Z,100068.91
2023-03-21T19:22:58.616Z,100071.63
2023-03-21T19:26:01.231Z,100069.88
2023-03-21T19:29:03.720Z,100068.78
2023-03-21T19:32:06.981Z,100075.34
2023-03-21T19:35:10.036Z,100078.94
2023-03-21T19:38:12.956Z,100073.28
2023-03-21T19:41:15.679Z,100078.78
2023-03-21T19:44:18.468Z,100081.97
2023-03-21T19:47:20.904Z,100084.87
2023-03-21T19:50:57.956Z,100087.53
2023-03-21T19:53:52.434Z,100084.00
2023-03-21T19:56:55.227Z,100085.38
2023-03-21T19:59:57.885Z,100087.19
2023-03-21T20:03:00.452Z,100089.62
2023-03-21T20:06:04.592Z,100084.91
2023-03-21T20:12:29.838Z,100093.69
2023-03-21T20:15:32.747Z,100094.34
2023-03-21T20:18:35.871Z,100092.41
2023-03-21T20:21:49.051Z,100098.13
2023-03-21T20:24:54.604Z,100098.37
2023-03-21T20:28:14.563Z,100101.03
2023-03-21T20:31:19.119Z,100102.16
2023-03-21T20:34:22.013Z,100101.37
2023-03-21T20:37:24.705Z,100098.53
2023-03-21T20:40:27.758Z,100103.94
2023-03-21T20:46:53.416Z,100100.19
2023-03-21T20:50:00.014Z,100102.56
2023-03-21T20:53:07.303Z,100100.56
2023-03-21T20:56:10.105Z,100105.44
2023-03-21T20:59:23.227Z,100101.53
2023-03-21T21:02:28.867Z,100103.66
2023-03-21T21:05:34.820Z,100107.00
2023-03-21T21:08:38.645Z,100113.31
2023-03-21T21:15:03.609Z,100117.31
2023-03-21T21:18:07.600Z,100119.09
2023-03-21T21:21:10.875Z,100130.38
2023-03-21T21:24:14.738Z,100121.75
2023-03-21T21:27:17.675Z,100123.06
2023-03-21T21:30:20.392Z,100120.53
2023-03-21T21:33:23.102Z,100119.97
2023-03-21T21:36:25.318Z,100118.09
2023-03-21T21:39:27.936Z,100124.59
2023-03-21T21:42:30.276Z,100126.72
2023-03-21T21:45:32.970Z,100125.78
2023-03-21T21:48:35.459Z,100125.06
2023-03-21T21:51:38.345Z,100128.16
2023-03-21T21:54:45.879Z,100133.13
2023-03-21T21:57:50.951Z,100134.22
2023-03-21T22:00:54.041Z,100139.66
2023-03-21T22:03:58.231Z,100140.03
2023-03-21T22:07:02.644Z,100134.69
2023-03-21T22:10:05.902Z,100141.31
2023-03-21T22:13:08.606Z,100143.94
2023-03-21T22:16:11.723Z,100148.47
2023-03-21T22:19:14.460Z,100154.63
2023-03-21T22:22:16.929Z,100163.28
2023-03-21T22:25:19.410Z,100171.12
2023-03-21T22:28:22.416Z,100177.91
2023-03-21T22:31:26.485Z,100179.69
2023-03-21T22:34:29.095Z,100178.28
2023-03-21T22:37:35.197Z,100177.56
2023-03-21T22:40:38.206Z,100178.12
2023-03-21T22:43:40.990Z,100185.22
2023-03-21T22:46:43.646Z,100176.53
2023-03-21T22:49:47.404Z,100176.53
2023-03-21T22:52:49.828Z,100173.66
2023-03-21T22:55:52.528Z,100178.84
2023-03-21T22:58:54.960Z,100176.19
2023-03-21T23:01:57.988Z,100170.81
2023-03-21T23:05:00.413Z,100171.63
2023-03-21T23:08:02.788Z,100165.50
2023-03-21T23:11:09.003Z,100168.44
2023-03-21T23:14:14.297Z,100168.88
2023-03-21T23:17:16.774Z,100166.50
2023-03-21T23:20:19.528Z,100162.44
2023-03-21T23:23:22.093Z,100169.34
2023-03-21T23:26:24.635Z,100163.00
2023-03-21T23:29:27.280Z,100166.69
2023-03-21T23:32:29.685Z,100169.94
2023-03-21T23:35:35.106Z,100168.00
2023-03-21T23:38:37.839Z,100166.16
2023-03-21T23:41:43.140Z,100167.72
2023-03-21T23:44:45.712Z,100164.59
2023-03-21T23:47:48.224Z,100168.38
2023-03-21T23:50:50.875Z,100169.94
2023-03-21T23:53:53.764Z,100172.09
2023-03-21T23:56:56.638Z,100164.72
2023-03-21T23:59:59.428Z,100169.50
